createdAt,value
2019-02-20T00:01:29.920Z,1.50
2019-02-20T00:03:56.593Z,1.50
2019-02-20T00:06:23.306Z,1.60
2019-02-20T00:08:50.742Z,1.50
2019-02-20T00:11:18.223Z,1.40
2019-02-20T00:13:44.875Z,1.40
2019-02-20T00:16:12.258Z,1.40
2019-02-20T00:18:39.002Z,1.40
2019-02-20T00:21:05.682Z,1.40
2019-02-20T00:23:32.382Z,1.40
2019-02-20T00:25:59.126Z,1.30
2019-02-20T00:28:25.868Z,1.30
2019-02-20T00:30:52.517Z,1.30
2019-02-20T00:33:19.426Z,1.30
2019-02-20T00:35:46.293Z,1.30
2019-02-20T00:38:12.980Z,1.20
2019-02-20T00:40:39.696Z,1.20
2019-02-20T00:43:06.417Z,1.20
2019-02-20T00:45:34.260Z,1.10
2019-02-20T00:48:03.927Z,1.10
2019-02-20T00:50:30.707Z,1.10
2019-02-20T00:52:57.446Z,1.10
2019-02-20T00:55:24.130Z,1.10
2019-02-20T00:57:50.813Z,1.00
2019-02-20T01:00:18.249Z,1.00
2019-02-20T01:02:44.970Z,1.00
2019-02-20T01:05:11.705Z,1.00
2019-02-20T01:07:38.416Z,1.00
2019-02-20T01:10:05.212Z,0.90
2019-02-20T01:12:31.883Z,0.90
2019-02-20T01:14:59.267Z,0.90
2019-02-20T01:17:25.962Z,0.90
2019-02-20T01:19:53.349Z,0.80
2019-02-20T01:22:20.039Z,0.80
2019-02-20T01:24:47.515Z,0.80
2019-02-20T01:27:14.992Z,0.80
2019-02-20T01:29:41.764Z,0.80
2019-02-20T01:32:08.673Z,0.80
2019-02-20T01:34:36.231Z,0.70
2019-02-20T01:37:02.972Z,0.70
2019-02-20T01:39:29.707Z,0.70
2019-02-20T01:41:57.103Z,0.80
2019-02-20T01:44:23.913Z,0.70
2019-02-20T01:46:50.657Z,0.80
2019-02-20T01:49:17.391Z,0.70
2019-02-20T01:51:45.070Z,0.70
2019-02-20T01:54:11.081Z,0.70
2019-02-20T01:56:37.920Z,0.70
2019-02-20T01:59:04.765Z,0.70
2019-02-20T02:01:31.442Z,0.80
2019-02-20T02:03:58.251Z,0.70
2019-02-20T02:06:24.987Z,0.70
2019-02-20T02:08:51.729Z,0.80
2019-02-20T02:11:18.390Z,0.80
2019-02-20T02:13:45.103Z,0.90
2019-02-20T02:16:11.843Z,0.80
2019-02-20T02:18:38.687Z,0.80
2019-02-20T02:21:12.387Z,0.80
2019-02-20T02:23:39.724Z,0.80
2019-02-20T02:26:10.823Z,0.70
2019-02-20T02:28:34.162Z,0.70
2019-02-20T02:31:01.709Z,0.70
2019-02-20T02:33:28.554Z,0.70
2019-02-20T02:35:55.289Z,0.70
2019-02-20T02:38:22.030Z,0.70
2019-02-20T02:40:49.488Z,0.60
2019-02-20T02:43:16.331Z,0.60
2019-02-20T02:45:42.997Z,0.70
2019-02-20T02:48:09.717Z,0.60
2019-02-20T02:50:36.471Z,0.60
2019-02-20T02:53:03.189Z,0.60
2019-02-20T02:55:30.651Z,0.70
2019-02-20T02:57:57.360Z,0.60
2019-02-20T03:00:24.009Z,0.70
2019-02-20T03:02:50.670Z,0.70
2019-02-20T03:05:17.403Z,0.70
2019-02-20T03:07:44.808Z,0.90
2019-02-20T03:10:11.606Z,0.80
2019-02-20T03:12:39.080Z,0.90
2019-02-20T03:15:05.799Z,0.90
2019-02-20T03:17:32.544Z,0.90
2019-02-20T03:19:59.387Z,1.00
2019-02-20T03:22:26.945Z,1.00
2019-02-20T03:24:54.351Z,1.00
2019-02-20T03:27:21.091Z,1.00
2019-02-20T03:29:47.768Z,1.10
2019-02-20T03:32:14.485Z,1.20
2019-02-20T03:34:42.663Z,1.40
2019-02-20T03:37:09.310Z,1.40
2019-02-20T03:39:36.799Z,1.50
2019-02-20T03:42:03.741Z,1.50
2019-02-20T03:44:30.585Z,1.60
2019-02-20T03:46:57.526Z,1.60
2019-02-20T03:49:24.267Z,1.60
2019-02-20T03:51:51.109Z,1.70
2019-02-20T03:54:17.951Z,1.80
2019-02-20T03:56:45.509Z,1.80
2019-02-20T03:59:12.357Z,1.70
2019-02-20T04:01:39.140Z,1.70
2019-02-20T04:04:05.938Z,1.60
2019-02-20T04:06:32.784Z,1.50
2019-02-20T04:08:59.625Z,1.50
2019-02-20T04:11:26.345Z,1.50
2019-02-20T04:13:54.024Z,1.40
2019-02-20T04:16:21.586Z,1.30
2019-02-20T04:18:48.324Z,1.30
2019-02-20T04:21:16.009Z,1.20
2019-02-20T04:23:42.728Z,1.20
2019-02-20T04:26:10.002Z,1.20
2019-02-20T04:28:36.283Z,1.20
2019-02-20T04:31:03.159Z,1.20
2019-02-20T04:33:31.431Z,1.00
2019-02-20T04:35:58.272Z,1.00
2019-02-20T04:38:25.013Z,0.90
2019-02-20T04:40:51.755Z,1.00
2019-02-20T04:43:19.416Z,0.90
2019-02-20T04:45:46.156Z,0.90
2019-02-20T04:48:13.715Z,0.80
2019-02-20T04:50:41.386Z,0.80
2019-02-20T04:53:08.120Z,0.80
2019-02-20T04:55:34.968Z,0.80
2019-02-20T04:58:02.931Z,0.80
2019-02-20T05:00:29.624Z,0.70
2019-02-20T05:02:56.513Z,0.70
2019-02-20T05:05:23.362Z,0.60
2019-02-20T05:07:50.097Z,0.60
2019-02-20T05:10:16.838Z,0.50
2019-02-20T05:12:44.397Z,0.50
2019-02-20T05:15:11.146Z,0.40
2019-02-20T05:17:37.983Z,0.40
2019-02-20T05:20:04.936Z,0.40
2019-02-20T05:22:37.589Z,0.40
2019-02-20T05:25:04.788Z,0.40
2019-02-20T05:27:31.600Z,0.30
2019-02-20T05:29:59.057Z,0.20
2019-02-20T05:32:27.386Z,0.20
2019-02-20T05:34:54.459Z,0.10
2019-02-20T05:37:21.346Z,0.10
2019-02-20T05:39:48.047Z,0.10
2019-02-20T05:42:14.738Z,0.00
2019-02-20T05:44:42.145Z,0.00
2019-02-20T05:47:08.949Z,-0.10
2019-02-20T05:49:35.619Z,-0.10
2019-02-20T05:52:03.049Z,-0.10
2019-02-20T05:54:34.416Z,-0.10
2019-02-20T05:56:56.582Z,-0.10
2019-02-20T05:59:23.320Z,-0.10
2019-02-20T06:01:50.780Z,-0.10
2019-02-20T06:04:17.730Z,-0.10
2019-02-20T06:06:44.565Z,-0.20
2019-02-20T06:09:12.125Z,-0.30
2019-02-20T06:11:38.868Z,-0.30
2019-02-20T06:14:06.324Z,-0.40
2019-02-20T06:16:34.003Z,-0.40
2019-02-20T06:19:00.839Z,-0.50
2019-02-20T06:21:27.507Z,-0.40
2019-02-20T06:23:54.311Z,-0.40
2019-02-20T06:26:21.068Z,-0.40
2019-02-20T06:28:47.790Z,-0.40
2019-02-20T06:31:14.634Z,-0.40
2019-02-20T06:33:41.374Z,-0.30
2019-02-20T06:36:09.035Z,-0.30
2019-02-20T06:38:35.882Z,-0.30
2019-02-20T06:41:02.732Z,-0.30
2019-02-20T06:43:29.462Z,-0.30
2019-02-20T06:45:56.205Z,-0.30
2019-02-20T06:48:22.963Z,-0.30
2019-02-20T06:50:49.683Z,-0.30
2019-02-20T06:53:16.380Z,-0.30
2019-02-20T06:55:43.166Z,-0.20
2019-02-20T06:58:10.011Z,-0.30
2019-02-20T07:00:36.852Z,-0.30
2019-02-20T07:03:04.306Z,-0.20
2019-02-20T07:05:33.811Z,-0.20
2019-02-20T07:08:18.438Z,-0.20
2019-02-20T07:14:23.133Z,-0.20
2019-02-20T07:16:57.773Z,-0.20
2019-02-20T07:19:27.253Z,-0.10
2019-02-20T07:22:12.140Z,0.00
2019-02-20T07:24:47.758Z,0.00
2019-02-20T07:27:22.679Z,0.00
2019-02-20T07:29:57.430Z,0.10
2019-02-20T07:32:24.865Z,0.20
2019-02-20T07:34:52.345Z,0.30
2019-02-20T07:37:19.188Z,0.20
2019-02-20T07:39:46.588Z,0.40
2019-02-20T07:42:13.243Z,0.40
2019-02-20T07:44:40.127Z,0.60
2019-02-20T07:47:06.865Z,1.00
2019-02-20T07:49:33.610Z,1.40
2019-02-20T07:52:00.350Z,1.50
2019-02-20T07:54:27.191Z,2.50
2019-02-20T07:56:53.932Z,3.70
2019-02-20T07:59:20.572Z,4.40
2019-02-20T08:01:48.010Z,6.70
2019-02-20T08:04:15.489Z,7.50
2019-02-20T08:06:42.221Z,7.50
2019-02-20T08:09:09.786Z,6.00
2019-02-20T08:11:36.521Z,5.90
2019-02-20T08:14:03.471Z,5.40
2019-02-20T08:16:30.217Z,4.50
2019-02-20T08:18:57.053Z,4.00
2019-02-20T08:21:27.276Z,3.30
2019-02-20T08:23:54.223Z,2.80
2019-02-20T08:26:20.961Z,2.70
2019-02-20T08:28:47.617Z,2.80
2019-02-20T08:31:14.442Z,2.80
2019-02-20T08:33:42.009Z,2.50
2019-02-20T08:36:08.858Z,2.40
2019-02-20T08:38:35.588Z,2.30
2019-02-20T08:41:02.243Z,2.00
2019-02-20T08:43:28.952Z,2.10
2019-02-20T08:45:56.373Z,2.10
2019-02-20T08:48:23.268Z,2.10
2019-02-20T08:50:50.107Z,2.20
2019-02-20T08:53:16.777Z,2.30
2019-02-20T08:55:43.452Z,2.60
2019-02-20T08:58:10.326Z,2.90
2019-02-20T09:00:37.887Z,2.30
2019-02-20T09:03:04.730Z,2.30
2019-02-20T09:05:34.192Z,2.80
2019-02-20T09:07:59.189Z,2.70
2019-02-20T09:10:25.842Z,2.70
2019-02-20T09:12:52.579Z,2.70
2019-02-20T09:15:19.352Z,2.60
2019-02-20T09:17:46.025Z,2.50
2019-02-20T09:20:12.795Z,2.50
2019-02-20T09:22:39.692Z,2.60
2019-02-20T09:25:07.151Z,2.40
2019-02-20T09:27:34.083Z,2.50
2019-02-20T09:30:00.936Z,2.70
2019-02-20T09:32:27.610Z,2.80
2019-02-20T09:34:54.408Z,2.50
2019-02-20T09:37:21.250Z,2.30
2019-02-20T09:39:48.790Z,2.20
2019-02-20T09:42:16.329Z,2.30
2019-02-20T09:44:43.061Z,2.30
2019-02-20T09:47:09.824Z,2.60
2019-02-20T09:49:37.305Z,3.10
2019-02-20T09:52:03.983Z,3.10
2019-02-20T09:54:30.704Z,2.80
2019-02-20T09:56:57.422Z,2.70
2019-02-20T09:59:24.884Z,2.30
2019-02-20T10:01:51.609Z,2.30
2019-02-20T10:04:18.984Z,2.60
2019-02-20T10:06:45.715Z,2.60
2019-02-20T10:09:13.168Z,2.60
2019-02-20T10:11:40.630Z,2.40
2019-02-20T10:14:08.087Z,2.50
2019-02-20T10:16:35.031Z,2.40
2019-02-20T10:19:02.433Z,2.80
2019-02-20T10:21:29.913Z,2.80
2019-02-20T10:23:56.669Z,2.80
2019-02-20T10:26:23.355Z,3.00
2019-02-20T10:28:50.029Z,3.10
2019-02-20T10:31:16.804Z,2.70
2019-02-20T10:33:43.545Z,2.30
2019-02-20T10:36:10.356Z,2.10
2019-02-20T10:38:37.003Z,1.80
2019-02-20T10:41:03.975Z,1.60
2019-02-20T10:43:31.535Z,1.90
2019-02-20T10:45:58.378Z,1.90
2019-02-20T10:48:25.039Z,2.20
2019-02-20T10:50:51.864Z,2.30
2019-02-20T10:53:18.580Z,2.00
2019-02-20T10:55:45.992Z,2.10
2019-02-20T10:58:12.798Z,2.10
2019-02-20T11:00:39.474Z,2.20
2019-02-20T11:03:06.271Z,2.20
2019-02-20T11:05:33.834Z,2.20
2019-02-20T11:08:00.577Z,2.20
2019-02-20T11:10:27.304Z,1.80
2019-02-20T11:12:54.880Z,1.80
2019-02-20T11:15:21.539Z,1.70
2019-02-20T11:17:48.356Z,1.80
2019-02-20T11:20:15.804Z,1.80
2019-02-20T11:22:43.217Z,1.80
2019-02-20T11:25:09.996Z,1.80
2019-02-20T11:27:39.376Z,1.70
2019-02-20T11:30:04.268Z,1.70
2019-02-20T11:32:31.003Z,1.70
2019-02-20T11:34:57.679Z,1.80
2019-02-20T11:37:25.135Z,1.70
2019-02-20T11:39:54.005Z,1.40
2019-02-20T11:42:19.346Z,1.40
2019-02-20T11:44:46.907Z,1.60
2019-02-20T11:47:13.746Z,1.50
2019-02-20T11:49:40.395Z,1.50
2019-02-20T11:52:07.143Z,1.50
2019-02-20T11:54:33.971Z,1.50
2019-02-20T11:57:00.650Z,1.70
2019-02-20T11:59:27.373Z,1.70
2019-02-20T12:01:54.059Z,1.80
2019-02-20T12:04:21.546Z,1.90
2019-02-20T12:06:49.007Z,1.50
2019-02-20T12:09:15.698Z,1.50
2019-02-20T12:11:43.413Z,1.40
2019-02-20T12:14:10.356Z,1.40
2019-02-20T12:16:37.092Z,1.60
2019-02-20T12:19:04.760Z,1.30
2019-02-20T12:21:31.598Z,1.30
2019-02-20T12:23:58.442Z,1.50
2019-02-20T12:26:25.828Z,1.60
2019-02-20T12:28:52.637Z,1.60
2019-02-20T12:31:20.052Z,1.50
2019-02-20T12:33:46.711Z,1.50
2019-02-20T12:36:14.191Z,1.50
2019-02-20T12:38:40.929Z,1.50
2019-02-20T12:41:08.318Z,1.80
2019-02-20T12:43:35.128Z,1.80
2019-02-20T12:46:02.585Z,1.50
2019-02-20T12:48:29.426Z,1.40
2019-02-20T12:50:56.146Z,1.50
2019-02-20T12:53:24.340Z,1.40
2019-02-20T12:55:51.800Z,1.50
2019-02-20T12:58:18.505Z,1.50
2019-02-20T13:00:45.292Z,1.50
2019-02-20T13:03:11.994Z,1.40
2019-02-20T13:05:38.765Z,1.40
2019-02-20T13:08:05.419Z,1.30
2019-02-20T13:10:32.154Z,1.10
2019-02-20T13:12:58.982Z,1.20
2019-02-20T13:15:27.295Z,1.30
2019-02-20T13:17:52.464Z,1.20
2019-02-20T13:20:21.216Z,1.10
2019-02-20T13:22:47.073Z,1.30
2019-02-20T13:25:13.811Z,1.20
2019-02-20T13:27:40.481Z,1.20
2019-02-20T13:30:08.215Z,1.20
2019-02-20T13:32:34.954Z,1.20
2019-02-20T13:35:01.819Z,1.30
2019-02-20T13:37:28.744Z,1.40
2019-02-20T13:39:55.587Z,1.50
2019-02-20T13:42:22.461Z,1.40
2019-02-20T13:44:49.989Z,1.40
2019-02-20T13:47:16.727Z,1.40
2019-02-20T13:49:43.678Z,1.50
2019-02-20T13:52:10.397Z,1.30
2019-02-20T13:54:37.874Z,1.30
2019-02-20T13:57:04.622Z,1.30
2019-02-20T13:59:32.276Z,1.20
2019-02-20T14:01:58.975Z,1.20
2019-02-20T14:04:26.471Z,1.30
2019-02-20T14:06:53.220Z,1.30
2019-02-20T14:09:19.920Z,1.20
2019-02-20T14:11:47.514Z,1.00
2019-02-20T14:14:14.256Z,1.00
2019-02-20T14:16:41.099Z,1.00
2019-02-20T14:19:08.760Z,0.90
2019-02-20T14:21:35.602Z,0.90
2019-02-20T14:24:02.334Z,1.00
2019-02-20T14:26:29.886Z,0.80
2019-02-20T14:28:56.744Z,0.80
2019-02-20T14:31:23.412Z,0.80
2019-02-20T14:33:50.225Z,0.90
2019-02-20T14:36:16.967Z,0.90
2019-02-20T14:38:44.526Z,0.80
2019-02-20T14:41:11.262Z,0.70
2019-02-20T14:43:38.110Z,0.80
2019-02-20T14:46:05.672Z,0.80
2019-02-20T14:48:32.404Z,0.80
2019-02-20T14:50:59.150Z,0.70
2019-02-20T14:53:26.096Z,0.50
2019-02-20T14:55:52.834Z,0.50
2019-02-20T14:58:20.608Z,0.30
2019-02-20T15:00:47.395Z,0.30
2019-02-20T15:03:14.083Z,0.30
2019-02-20T15:05:40.766Z,0.20
2019-02-20T15:08:07.517Z,0.30
2019-02-20T15:10:35.018Z,0.20
2019-02-20T15:13:01.762Z,0.20
2019-02-20T15:15:28.570Z,0.10
2019-02-20T15:17:55.448Z,0.00
2019-02-20T15:20:22.168Z,-0.20
2019-02-20T15:22:49.340Z,-0.20
2019-02-20T15:25:16.180Z,-0.20
2019-02-20T15:27:42.920Z,-0.20
2019-02-20T15:30:12.275Z,-0.40
2019-02-20T15:32:38.241Z,-0.50
2019-02-20T15:35:05.189Z,-0.50
2019-02-20T15:37:32.954Z,-0.80
2019-02-20T15:39:59.793Z,-0.80
2019-02-20T15:42:26.639Z,-1.00
2019-02-20T15:44:53.378Z,-1.10
2019-02-20T15:47:20.325Z,-1.20
2019-02-20T15:49:47.181Z,-1.30
2019-02-20T15:52:14.114Z,-1.40
2019-02-20T15:54:40.853Z,-1.50
2019-02-20T15:57:07.695Z,-1.50
2019-02-20T15:59:34.386Z,-1.60
2019-02-20T16:02:01.094Z,-1.80
2019-02-20T16:04:29.039Z,-1.80
2019-02-20T16:06:56.705Z,-1.90
2019-02-20T16:09:24.970Z,-1.90
2019-02-20T16:11:50.297Z,-1.90
2019-02-20T16:14:17.028Z,-1.90
2019-02-20T16:16:43.874Z,-1.90
2019-02-20T16:19:10.819Z,-1.90
2019-02-20T16:21:37.662Z,-2.00
2019-02-20T16:24:04.404Z,-2.00
2019-02-20T16:26:31.247Z,-2.10
2019-02-20T16:28:58.033Z,-2.10
2019-02-20T16:31:24.827Z,-2.10
2019-02-20T16:33:52.641Z,-2.20
2019-02-20T16:36:20.159Z,-2.20
2019-02-20T16:38:46.999Z,-2.30
2019-02-20T16:41:13.943Z,-2.30
2019-02-20T16:43:40.679Z,-2.40
2019-02-20T16:46:07.522Z,-2.50
2019-02-20T16:48:34.469Z,-2.50
2019-02-20T16:51:01.314Z,-2.50
2019-02-20T16:53:28.160Z,-2.50
2019-02-20T16:55:55.921Z,-2.50
2019-02-20T16:58:22.757Z,-2.50
2019-02-20T17:00:49.645Z,-2.50
2019-02-20T17:03:16.446Z,-2.60
2019-02-20T17:05:43.845Z,-2.60
2019-02-20T17:08:11.114Z,-2.60
2019-02-20T17:10:38.647Z,-2.60
2019-02-20T17:13:05.357Z,-2.60
2019-02-20T17:15:32.922Z,-2.60
2019-02-20T17:17:59.755Z,-2.60
2019-02-20T17:20:27.038Z,-2.60
2019-02-20T17:22:53.910Z,-2.60
2019-02-20T17:25:20.796Z,-2.60
2019-02-20T17:27:48.023Z,-2.60
2019-02-20T17:30:15.968Z,-2.60
2019-02-20T17:32:43.492Z,-2.60
2019-02-20T17:35:11.705Z,-2.60
2019-02-20T17:37:38.871Z,-2.60
2019-02-20T17:40:07.252Z,-2.80
2019-02-20T17:42:34.684Z,-2.90
2019-02-20T17:45:01.353Z,-2.90
2019-02-20T17:47:29.234Z,-3.00
2019-02-20T17:49:56.285Z,-3.00
2019-02-20T17:52:23.250Z,-3.10
2019-02-20T17:54:49.994Z,-3.10
2019-02-20T17:57:16.659Z,-3.20
2019-02-20T17:59:45.116Z,-3.20
2019-02-20T18:02:10.125Z,-3.20
2019-02-20T18:04:36.794Z,-3.30
2019-02-20T18:07:03.676Z,-3.30
2019-02-20T18:09:31.106Z,-3.40
2019-02-20T18:11:58.486Z,-3.40
2019-02-20T18:14:25.930Z,-3.40
2019-02-20T18:16:53.364Z,-3.50
2019-02-20T18:19:20.008Z,-3.50
2019-02-20T18:21:46.722Z,-3.50
2019-02-20T18:24:13.365Z,-3.50
2019-02-20T18:26:40.110Z,-3.50
2019-02-20T18:29:06.856Z,-3.50
2019-02-20T18:31:33.588Z,-3.60
2019-02-20T18:34:00.272Z,-3.60
2019-02-20T18:36:28.161Z,-3.60
2019-02-20T18:38:54.937Z,-3.70
2019-02-20T18:41:21.608Z,-3.80
2019-02-20T18:43:49.090Z,-3.80
2019-02-20T18:46:15.746Z,-3.80
2019-02-20T18:48:42.451Z,-3.80
2019-02-20T18:51:09.302Z,-3.80
2019-02-20T18:53:35.979Z,-3.80
2019-02-20T18:56:02.912Z,-3.80
2019-02-20T18:58:34.034Z,-3.80
2019-02-20T19:00:57.119Z,-3.90
2019-02-20T19:03:23.774Z,-3.90
2019-02-20T19:05:50.511Z,-4.00
2019-02-20T19:08:41.323Z,-4.00
2019-02-20T19:11:25.758Z,-4.10
2019-02-20T19:14:00.242Z,-4.10
2019-02-20T19:19:36.578Z,-4.10
2019-02-20T19:22:25.199Z,-4.00
2019-02-20T19:25:01.731Z,-4.10
2019-02-20T19:27:32.410Z,-4.10
2019-02-20T19:30:19.017Z,-4.10
2019-02-20T19:32:47.774Z,-4.10
2019-02-20T19:35:25.307Z,-4.20
2019-02-20T19:38:19.671Z,-4.20
2019-02-20T19:40:49.616Z,-4.30
2019-02-20T19:43:49.077Z,-4.30
2019-02-20T19:46:40.924Z,-4.40
2019-02-20T19:52:28.440Z,-4.50
2019-02-20T19:55:16.022Z,-4.50
2019-02-20T19:57:54.723Z,-4.50
2019-02-20T20:03:26.456Z,-4.70
2019-02-20T20:05:56.972Z,-4.70
2019-02-20T20:08:25.627Z,-4.70
2019-02-20T20:14:18.888Z,-4.80
2019-02-20T20:19:53.366Z,-4.80
2019-02-20T20:22:48.095Z,-4.90
2019-02-20T20:25:20.525Z,-4.90
2019-02-20T20:27:52.487Z,-4.90
2019-02-20T20:33:40.233Z,-5.00
2019-02-20T20:36:26.815Z,-5.00
2019-02-20T20:39:10.560Z,-5.10
2019-02-20T20:41:49.515Z,-5.10
2019-02-20T20:44:28.338Z,-5.10
2019-02-20T20:47:03.259Z,-5.10
2019-02-20T20:49:58.076Z,-5.10
2019-02-20T20:52:40.390Z,-5.20
2019-02-20T20:55:15.139Z,-5.20
2019-02-20T20:57:50.635Z,-5.20
2019-02-20T21:00:53.831Z,-5.20
2019-02-20T21:03:24.271Z,-5.30
2019-02-20T21:08:51.123Z,-5.40
2019-02-20T21:11:17.950Z,-5.40
2019-02-20T21:13:47.523Z,-5.40
2019-02-20T21:19:22.495Z,-5.40
2019-02-20T21:22:14.750Z,-5.50
2019-02-20T21:27:51.487Z,-5.40
2019-02-20T21:30:44.060Z,-5.50
2019-02-20T21:33:15.581Z,-5.50
2019-02-20T21:35:49.244Z,-5.60
2019-02-20T21:38:39.143Z,-5.60
2019-02-20T21:41:13.711Z,-5.60
2019-02-20T21:43:47.823Z,-5.70
2019-02-20T21:46:17.569Z,-5.70
2019-02-20T21:48:55.988Z,-5.80
2019-02-20T21:51:24.301Z,-5.80
2019-02-20T21:54:05.880Z,-5.90
2019-02-20T21:56:36.488Z,-5.80
2019-02-20T21:59:10.609Z,-6.00
2019-02-20T22:01:41.443Z,-6.00
2019-02-20T22:07:16.630Z,-6.00
2019-02-20T22:10:04.748Z,-5.90
2019-02-20T22:15:31.914Z,-6.00
2019-02-20T22:18:16.509Z,-5.90
2019-02-20T22:21:07.310Z,-6.00
2019-02-20T22:26:46.194Z,-6.30
2019-02-20T22:29:21.306Z,-6.40
2019-02-20T22:31:56.363Z,-6.30
2019-02-20T22:34:36.223Z,-6.10
2019-02-20T22:37:05.447Z,-6.10
2019-02-20T22:39:39.260Z,-6.10
2019-02-20T22:42:12.479Z,-6.00
2019-02-20T22:44:48.133Z,-6.00
2019-02-20T22:47:29.788Z,-6.00
2019-02-20T22:50:14.838Z,-5.90
2019-02-20T22:52:49.685Z,-5.90
2019-02-20T22:58:17.574Z,-5.80
2019-02-20T23:04:12.998Z,-5.80
2019-02-20T23:06:46.482Z,-5.80
2019-02-20T23:09:20.516Z,-5.90
2019-02-20T23:11:57.141Z,-5.90
2019-02-20T23:14:44.203Z,-5.90
2019-02-20T23:17:11.207Z,-5.80
2019-02-20T23:19:38.170Z,-5.90
2019-02-20T23:22:04.971Z,-6.00
2019-02-20T23:24:31.934Z,-6.10
2019-02-20T23:26:58.783Z,-6.00
2019-02-20T23:29:25.461Z,-5.90
2019-02-20T23:31:52.913Z,-5.80
2019-02-20T23:34:20.348Z,-5.70
2019-02-20T23:36:47.061Z,-5.80
2019-02-20T23:39:13.864Z,-5.70
2019-02-20T23:41:41.326Z,-5.70
2019-02-20T23:44:08.009Z,-5.70
2019-02-20T23:46:34.718Z,-5.70
2019-02-20T23:49:01.401Z,-5.70
2019-02-20T23:51:28.828Z,-5.60
2019-02-20T23:53:55.945Z,-5.70
2019-02-20T23:56:23.384Z,-5.60
2019-02-20T23:58:50.865Z,-5.50
